Time;durP1;ratioP1;P1;durP2;ratioP2;P2;SDS_P1;SDS_P2;PMS_P1;PMS_P2;Temp;Humidity;BMP_temperature;BMP_pressure;BME280_temperature;BME280_humidity;BME280_pressure;Samples;Min_cycle;Max_cycle;Signal;HPM_P1;HPM_P2
2024/01/07 00:00:03;;;;;;;35.78;24.17;;;4.10;99.90;;;;;;4993107;28;20042;-80
2024/01/07 00:02:30;;;;;;;31.60;21.48;;;4.20;99.90;;;;;;4995295;28;20030;-80
2024/01/07 00:04:56;;;;;;;36.97;23.55;;;4.20;99.90;;;;;;4995682;28;20030;-80
2024/01/07 00:07:22;;;;;;;35.65;22.77;;;4.20;99.90;;;;;;4997800;28;20027;-80
2024/01/07 00:09:48;;;;;;;39.60;23.98;;;4.20;99.90;;;;;;4997342;28;20133;-81
2024/01/07 00:12:13;;;;;;;35.80;23.67;;;4.10;99.90;;;;;;4993391;28;20026;-81
2024/01/07 00:14:39;;;;;;;34.20;23.23;;;3.90;99.90;;;;;;4977385;28;20086;-80
2024/01/07 00:17:05;;;;;;;34.75;22.65;;;3.80;99.90;;;;;;4964157;28;20456;-81
2024/01/07 00:19:35;;;;;;;40.42;26.00;;;3.80;99.90;;;;;;5004083;28;20045;-80
2024/01/07 00:22:01;;;;;;;40.45;24.13;;;3.90;99.90;;;;;;5003284;28;20041;-80
2024/01/07 00:24:28;;;;;;;40.88;24.95;;;3.90;99.90;;;;;;4993389;28;20484;-81
2024/01/07 00:26:54;;;;;;;43.88;26.50;;;3.90;99.90;;;;;;4992990;28;20022;-76
2024/01/07 00:29:20;;;;;;;44.35;26.42;;;3.80;99.90;;;;;;4992812;28;20134;-75
2024/01/07 00:31:46;;;;;;;48.58;28.65;;;3.70;99.90;;;;;;4994398;28;20054;-76
2024/01/07 00:34:11;;;;;;;47.88;27.83;;;3.70;99.90;;;;;;4992915;28;20026;-77
2024/01/07 00:36:37;;;;;;;47.70;28.35;;;3.50;99.90;;;;;;4976897;28;20467;-76
2024/01/07 00:39:03;;;;;;;50.80;28.52;;;3.50;99.90;;;;;;4976510;28;20485;-77
2024/01/07 00:41:30;;;;;;;52.45;29.25;;;3.60;99.90;;;;;;4993892;28;20311;-75
2024/01/07 00:43:56;;;;;;;56.92;31.35;;;3.60;99.90;;;;;;4976563;28;20054;-77
2024/01/07 00:46:22;;;;;;;51.90;29.92;;;3.70;99.90;;;;;;4992380;28;20496;-76
2024/01/07 00:48:47;;;;;;;58.42;31.48;;;3.70;99.90;;;;;;4976955;28;20034;-77
2024/01/07 00:51:13;;;;;;;57.83;31.77;;;3.70;99.90;;;;;;4976495;28;20509;-76
2024/01/07 00:53:39;;;;;;;59.45;31.75;;;3.70;99.90;;;;;;4992956;28;20150;-76
2024/01/07 00:56:05;;;;;;;52.72;28.73;;;3.70;99.90;;;;;;4992224;28;20039;-76
2024/01/07 00:58:31;;;;;;;54.35;29.95;;;3.60;99.90;;;;;;4992476;28;20100;-76
2024/01/07 01:00:57;;;;;;;53.65;29.38;;;3.80;99.90;;;;;;4992831;28;20473;-76
2024/01/07 01:03:22;;;;;;;49.38;28.30;;;3.70;99.90;;;;;;4993279;28;20038;-76
2024/01/07 01:05:48;;;;;;;50.08;29.58;;;3.60;99.90;;;;;;4976462;28;20041;-76
2024/01/07 01:08:14;;;;;;;48.22;27.85;;;3.40;99.90;;;;;;4993748;28;20026;-76
2024/01/07 01:10:39;;;;;;;48.13;26.83;;;3.40;99.90;;;;;;4993481;28;20035;-76
2024/01/07 01:13:05;;;;;;;49.65;29.98;;;3.60;99.90;;;;;;4993142;28;20042;-76
2024/01/07 01:15:30;;;;;;;48.10;27.55;;;3.80;99.90;;;;;;4976235;28;20026;-76
2024/01/07 01:17:56;;;;;;;47.75;27.58;;;3.80;99.90;;;;;;4992915;28;20085;-76
2024/01/07 01:20:22;;;;;;;44.22;25.50;;;3.80;99.90;;;;;;4976058;28;20077;-76
2024/01/07 01:22:48;;;;;;;41.78;27.00;;;3.90;99.90;;;;;;4992153;28;20046;-76
2024/01/07 01:25:13;;;;;;;39.58;25.10;;;3.90;99.90;;;;;;4976170;28;20464;-77
2024/01/07 01:27:39;;;;;;;40.97;24.98;;;3.80;99.90;;;;;;4993995;28;20068;-76
2024/01/07 01:30:05;;;;;;;40.10;25.05;;;3.60;99.90;;;;;;4975951;28;20114;-76
2024/01/07 01:32:31;;;;;;;37.85;23.73;;;3.60;99.90;;;;;;4992146;28;20461;-76
2024/01/07 01:34:57;;;;;;;35.97;22.92;;;3.60;99.90;;;;;;4975944;28;20040;-76
2024/01/07 01:37:22;;;;;;;34.38;21.50;;;3.80;99.90;;;;;;4975961;28;20058;-76
2024/01/07 01:39:48;;;;;;;39.58;25.58;;;4.00;99.90;;;;;;4992155;28;20062;-76
2024/01/07 01:42:14;;;;;;;38.85;24.92;;;4.10;99.90;;;;;;4992094;28;20027;-76
2024/01/07 01:44:41;;;;;;;36.47;24.13;;;3.90;99.90;;;;;;4976022;28;20038;-76
2024/01/07 01:47:08;;;;;;;41.40;26.13;;;3.70;99.90;;;;;;4992240;28;20030;-76
2024/01/07 01:49:35;;;;;;;41.67;25.48;;;3.60;99.90;;;;;;4975974;28;20097;-77
2024/01/07 01:52:01;;;;;;;39.53;26.35;;;3.60;99.90;;;;;;4993065;28;20389;-76
2024/01/07 01:54:27;;;;;;;42.17;25.35;;;3.60;99.90;;;;;;4960602;28;20508;-77
2024/01/07 01:56:53;;;;;;;44.65;26.88;;;3.40;99.90;;;;;;4991560;28;20074;-77
2024/01/07 01:59:20;;;;;;;43.58;26.90;;;3.20;99.90;;;;;;4992600;28;20501;-77
2024/01/07 02:01:46;;;;;;;43.22;25.92;;;3.20;99.90;;;;;;4991871;28;20464;-76
2024/01/07 02:04:15;;;;;;;44.50;26.27;;;3.10;99.90;;;;;;4991912;28;20035;-76
2024/01/07 02:06:40;;;;;;;44.78;27.05;;;3.10;99.90;;;;;;4993029;28;20429;-76
2024/01/07 02:09:06;;;;;;;43.92;26.90;;;3.20;99.90;;;;;;4979241;28;20124;-77
2024/01/07 02:11:32;;;;;;;46.55;27.50;;;3.20;99.90;;;;;;4995657;28;20051;-77
2024/01/07 02:13:58;;;;;;;43.05;25.88;;;3.30;99.90;;;;;;4995118;28;20058;-76
2024/01/07 02:16:23;;;;;;;47.67;27.73;;;3.20;99.90;;;;;;4963122;28;20034;-77
2024/01/07 02:18:50;;;;;;;46.80;28.52;;;3.20;99.90;;;;;;4996662;28;20097;-77
2024/01/07 02:21:16;;;;;;;56.83;28.85;;;3.20;99.90;;;;;;4996365;28;20027;-77
2024/01/07 02:23:42;;;;;;;53.22;28.20;;;3.10;99.90;;;;;;4996313;28;20034;-77
2024/01/07 02:26:07;;;;;;;52.50;29.95;;;3.00;99.90;;;;;;4995666;28;20038;-77
2024/01/07 02:28:33;;;;;;;58.53;29.83;;;2.90;99.90;;;;;;4978606;28;20125;-76
2024/01/07 02:30:59;;;;;;;52.35;29.27;;;2.80;99.90;;;;;;4979467;28;20424;-76
2024/01/07 02:33:25;;;;;;;54.80;30.83;;;2.70;99.90;;;;;;4979004;28;20544;-76
2024/01/07 02:35:51;;;;;;;53.35;29.17;;;2.70;99.90;;;;;;4995089;28;20054;-77
2024/01/07 02:38:16;;;;;;;55.60;30.08;;;2.80;99.90;;;;;;4996543;28;20030;-76
2024/01/07 02:40:42;;;;;;;52.88;28.00;;;2.90;99.90;;;;;;4996403;28;20038;-77
2024/01/07 02:43:08;;;;;;;49.75;28.02;;;2.90;99.90;;;;;;4979286;28;20469;-77
2024/01/07 02:45:34;;;;;;;50.70;28.20;;;3.00;99.90;;;;;;4995921;28;20034;-77
2024/01/07 02:48:00;;;;;;;47.28;26.75;;;2.90;99.90;;;;;;4996197;28;20466;-77
2024/01/07 02:50:25;;;;;;;50.80;26.90;;;2.90;99.90;;;;;;4978462;28;20073;-78
2024/01/07 02:52:51;;;;;;;47.13;26.48;;;3.00;99.90;;;;;;4995290;28;20026;-79
2024/01/07 02:55:17;;;;;;;51.53;26.52;;;3.20;99.90;;;;;;4994888;28;20388;-79
2024/01/07 02:57:42;;;;;;;43.40;24.92;;;3.10;99.90;;;;;;4978291;28;20129;-79
2024/01/07 03:00:08;;;;;;;42.38;24.67;;;3.20;99.90;;;;;;4978596;28;20037;-80
2024/01/07 03:02:34;;;;;;;42.28;24.35;;;3.20;99.90;;;;;;4978699;28;20473;-80
2024/01/07 03:05:00;;;;;;;45.63;24.92;;;3.20;99.90;;;;;;4995007;28;20030;-78
2024/01/07 03:07:25;;;;;;;43.92;24.60;;;3.20;99.90;;;;;;4995974;28;20431;-77
2024/01/07 03:09:51;;;;;;;41.17;24.23;;;3.30;99.90;;;;;;4978251;28;20034;-78
2024/01/07 03:12:17;;;;;;;35.15;21.45;;;3.30;99.90;;;;;;4978061;28;20037;-78
2024/01/07 03:14:43;;;;;;;36.22;22.25;;;3.20;99.90;;;;;;4994328;28;20057;-78
2024/01/07 03:17:10;;;;;;;32.63;19.77;;;3.20;99.90;;;;;;4995522;28;20031;-78
2024/01/07 03:19:37;;;;;;;31.70;20.00;;;3.20;99.90;;;;;;4995227;28;20069;-78
2024/01/07 03:22:03;;;;;;;31.77;19.05;;;3.20;99.90;;;;;;4996033;28;20069;-79
2024/01/07 03:24:29;;;;;;;25.85;16.73;;;3.10;99.90;;;;;;4994547;28;20046;-78
2024/01/07 03:26:54;;;;;;;30.95;19.27;;;3.00;99.90;;;;;;4978061;28;20026;-78
2024/01/07 03:29:20;;;;;;;29.45;19.02;;;3.10;99.90;;;;;;4995606;28;20042;-78
2024/01/07 03:31:45;;;;;;;29.23;18.20;;;3.30;99.90;;;;;;4978312;28;20026;-79
2024/01/07 03:34:11;;;;;;;26.58;17.08;;;3.20;99.90;;;;;;4995377;28;20461;-78
2024/01/07 03:36:37;;;;;;;25.08;16.13;;;3.30;99.90;;;;;;4977668;28;20038;-78
2024/01/07 03:39:02;;;;;;;26.33;16.60;;;3.20;99.90;;;;;;4977805;28;20480;-78
2024/01/07 03:41:28;;;;;;;22.73;16.10;;;3.10;99.90;;;;;;4993286;28;20499;-78
2024/01/07 03:43:54;;;;;;;23.63;14.95;;;3.10;99.90;;;;;;4994851;28;20169;-78
2024/01/07 03:46:20;;;;;;;24.92;16.23;;;3.00;99.90;;;;;;4994136;28;20037;-78
2024/01/07 03:48:46;;;;;;;23.70;15.75;;;3.00;99.90;;;;;;4994201;28;20030;-78
2024/01/07 03:51:12;;;;;;;23.92;16.38;;;3.10;99.90;;;;;;4993940;28;20485;-79
2024/01/07 03:53:37;;;;;;;21.50;15.23;;;3.20;99.90;;;;;;4994179;28;20388;-78
2024/01/07 03:56:05;;;;;;;24.45;16.23;;;3.30;99.90;;;;;;4994881;28;20096;-78
2024/01/07 03:58:31;;;;;;;20.65;14.23;;;3.30;99.90;;;;;;4977710;28;20034;-78
2024/01/07 04:00:56;;;;;;;25.70;15.95;;;3.20;99.90;;;;;;4995415;28;20495;-78
2024/01/07 04:03:22;;;;;;;24.92;16.42;;;3.20;99.90;;;;;;4977454;28;20062;-78
2024/01/07 04:05:48;;;;;;;23.60;16.52;;;2.90;99.90;;;;;;4961282;28;20030;-78
2024/01/07 04:08:15;;;;;;;27.02;17.50;;;2.80;99.90;;;;;;4994781;28;20472;-78
2024/01/07 04:10:41;;;;;;;28.27;18.17;;;2.80;99.90;;;;;;4994793;28;20388;-78
2024/01/07 04:13:07;;;;;;;26.38;17.77;;;2.80;99.90;;;;;;4977752;28;20041;-78
2024/01/07 04:15:33;;;;;;;27.08;17.25;;;2.80;99.90;;;;;;4978126;28;20457;-78
2024/01/07 04:18:02;;;;;;;27.10;17.92;;;3.00;99.90;;;;;;4993372;28;20030;-78
2024/01/07 04:20:28;;;;;;;28.55;17.48;;;2.90;99.90;;;;;;4994701;28;20034;-78
2024/01/07 04:22:54;;;;;;;28.92;19.55;;;2.90;99.90;;;;;;4994519;28;20034;-78
2024/01/07 04:25:19;;;;;;;22.50;15.63;;;2.80;99.90;;;;;;4992990;28;20479;-79
2024/01/07 04:27:45;;;;;;;27.63;19.08;;;2.70;99.90;;;;;;4961118;28;20370;-78
2024/01/07 04:30:11;;;;;;;28.58;18.88;;;2.70;99.90;;;;;;4992410;28;20034;-78
2024/01/07 04:32:36;;;;;;;28.83;18.23;;;2.70;99.90;;;;;;4992984;28;20573;-79
2024/01/07 04:35:02;;;;;;;31.15;18.60;;;2.80;99.90;;;;;;4976958;28;20035;-78
2024/01/07 04:37:28;;;;;;;23.65;18.23;;;3.00;99.90;;;;;;4977012;28;20416;-78
2024/01/07 04:39:54;;;;;;;26.58;18.05;;;3.00;99.90;;;;;;4977173;28;20038;-78
2024/01/07 04:42:19;;;;;;;24.38;18.08;;;3.00;99.90;;;;;;4977062;28;20027;-78
2024/01/07 04:44:45;;;;;;;27.35;18.13;;;2.90;99.90;;;;;;4994168;28;20030;-78
2024/01/07 04:47:27;;;;;;;28.05;18.90;;;2.80;99.90;;;;;;4993395;28;20037;-79
2024/01/07 04:49:53;;;;;;;25.77;18.58;;;2.80;99.90;;;;;;4993888;28;20030;-79
2024/01/07 04:52:19;;;;;;;24.60;17.02;;;2.90;99.90;;;;;;4992973;28;20038;-79
2024/01/07 04:54:45;;;;;;;24.40;16.70;;;2.80;99.90;;;;;;4976811;28;20085;-79
2024/01/07 04:57:11;;;;;;;24.35;17.80;;;2.90;99.90;;;;;;4994079;28;20034;-78
2024/01/07 04:59:37;;;;;;;26.05;16.65;;;2.90;99.90;;;;;;4992822;28;20129;-79
2024/01/07 05:02:03;;;;;;;22.83;16.35;;;2.90;99.90;;;;;;4976979;28;20068;-79
2024/01/07 05:04:28;;;;;;;25.33;17.48;;;3.00;99.90;;;;;;4977116;28;20520;-78
2024/01/07 05:06:54;;;;;;;22.98;16.00;;;3.10;99.90;;;;;;4960514;28;20433;-79
2024/01/07 05:09:19;;;;;;;23.27;16.50;;;3.10;99.90;;;;;;4976555;28;20062;-79
2024/01/07 05:11:45;;;;;;;26.13;16.88;;;2.90;99.90;;;;;;4960684;28;20050;-79
2024/01/07 05:14:11;;;;;;;24.08;16.52;;;3.00;99.90;;;;;;4992539;28;20410;-79
2024/01/07 05:16:37;;;;;;;22.92;16.35;;;3.00;99.90;;;;;;4994374;28;20484;-80
2024/01/07 05:19:03;;;;;;;22.55;16.17;;;2.90;99.90;;;;;;4992446;28;20077;-79
2024/01/07 05:21:29;;;;;;;24.77;16.02;;;2.70;99.90;;;;;;4976317;28;20037;-79
2024/01/07 05:23:54;;;;;;;24.25;16.90;;;2.70;99.90;;;;;;4993452;28;20034;-79
2024/01/07 05:26:20;;;;;;;24.45;16.52;;;2.70;99.90;;;;;;4993729;28;20465;-79
2024/01/07 05:28:46;;;;;;;25.77;16.15;;;2.70;99.90;;;;;;4976598;28;20041;-79
2024/01/07 05:31:18;;;;;;;25.42;16.50;;;2.60;99.90;;;;;;4993395;28;20345;-79
2024/01/07 05:33:45;;;;;;;21.67;16.23;;;2.40;99.90;;;;;;4991953;28;20038;-79
2024/01/07 05:36:14;;;;;;;22.10;16.38;;;2.30;99.90;;;;;;4993820;28;20073;-79
2024/01/07 05:38:41;;;;;;;23.73;16.38;;;2.40;99.90;;;;;;4992292;28;20383;-79
2024/01/07 05:41:07;;;;;;;20.98;15.45;;;2.40;99.90;;;;;;4993543;28;20042;-79
2024/01/07 05:43:33;;;;;;;20.98;15.23;;;2.50;99.90;;;;;;4996193;28;20134;-79
2024/01/07 05:45:58;;;;;;;20.88;14.48;;;2.60;99.90;;;;;;4980383;28;20377;-79
2024/01/07 05:48:24;;;;;;;17.63;13.43;;;2.70;99.90;;;;;;4980147;28;20124;-79
2024/01/07 05:50:51;;;;;;;21.80;15.27;;;2.70;99.90;;;;;;4996493;28;20030;-79
2024/01/07 05:53:17;;;;;;;21.90;15.95;;;2.70;99.90;;;;;;4997521;28;20057;-80
2024/01/07 05:55:43;;;;;;;21.38;15.32;;;2.70;99.90;;;;;;4995882;28;20037;-79
2024/01/07 05:58:08;;;;;;;20.73;15.40;;;2.60;99.90;;;;;;4980310;28;20030;-79
2024/01/07 06:00:34;;;;;;;18.98;14.07;;;2.60;99.90;;;;;;4964012;28;20034;-79
2024/01/07 06:03:00;;;;;;;18.88;14.82;;;2.60;99.90;;;;;;4979724;28;20041;-80
2024/01/07 06:05:26;;;;;;;17.95;13.57;;;2.80;99.90;;;;;;4980089;28;20053;-79
2024/01/07 06:07:51;;;;;;;21.10;14.30;;;2.90;99.90;;;;;;4997011;28;20034;-79
2024/01/07 06:10:17;;;;;;;18.98;14.40;;;3.00;99.90;;;;;;4979584;28;20038;-79
2024/01/07 06:12:43;;;;;;;17.05;13.45;;;3.00;99.90;;;;;;4997069;28;20030;-80
2024/01/07 06:15:09;;;;;;;20.52;15.25;;;2.90;99.90;;;;;;4979197;28;20064;-80
2024/01/07 06:17:34;;;;;;;21.38;14.32;;;2.70;99.90;;;;;;4995256;28;20026;-79
2024/01/07 06:20:00;;;;;;;21.67;15.70;;;2.50;99.90;;;;;;4995396;28;20038;-79
2024/01/07 06:22:26;;;;;;;20.77;14.50;;;2.40;99.90;;;;;;4997123;28;20162;-79
2024/01/07 06:24:51;;;;;;;20.58;14.73;;;2.20;99.90;;;;;;4995597;28;20069;-79
2024/01/07 06:27:17;;;;;;;19.02;13.75;;;2.30;99.90;;;;;;4995469;28;20384;-79
2024/01/07 06:29:43;;;;;;;19.95;15.15;;;2.30;99.90;;;;;;4995521;28;20035;-79
2024/01/07 06:32:09;;;;;;;19.13;14.07;;;2.50;99.90;;;;;;4979141;28;20479;-79
2024/01/07 06:34:35;;;;;;;19.17;12.65;;;2.60;99.90;;;;;;4996933;28;20023;-79
2024/01/07 06:37:01;;;;;;;17.75;12.65;;;2.70;99.90;;;;;;4996481;28;20382;-80
2024/01/07 06:39:27;;;;;;;18.70;13.43;;;2.80;99.90;;;;;;4996672;28;20045;-79
2024/01/07 06:41:53;;;;;;;18.90;12.88;;;2.70;99.90;;;;;;4996265;28;20385;-79
2024/01/07 06:44:19;;;;;;;18.90;13.23;;;2.70;99.90;;;;;;4995163;28;20033;-79
2024/01/07 06:46:45;;;;;;;21.23;13.98;;;2.70;99.90;;;;;;4996532;28;20034;-79
2024/01/07 06:49:10;;;;;;;18.85;12.95;;;2.70;99.90;;;;;;4995442;28;20136;-79
2024/01/07 06:51:38;;;;;;;20.38;13.88;;;2.50;99.90;;;;;;4996151;28;20480;-80
2024/01/07 06:54:04;;;;;;;21.45;14.13;;;2.40;99.90;;;;;;4995254;28;20077;-79
2024/01/07 06:56:29;;;;;;;20.30;14.02;;;2.30;99.90;;;;;;4996991;28;20034;-80
2024/01/07 06:58:55;;;;;;;22.02;14.60;;;2.10;99.90;;;;;;4963059;28;20477;-79
2024/01/07 07:01:23;;;;;;;22.98;12.93;;;2.20;99.90;;;;;;4994571;28;20031;-80
2024/01/07 07:03:49;;;;;;;21.08;14.23;;;2.20;99.90;;;;;;4995309;28;20031;-79
2024/01/07 07:06:15;;;;;;;21.38;12.88;;;2.30;99.90;;;;;;4994607;28;20030;-78
2024/01/07 07:08:41;;;;;;;20.98;14.00;;;2.30;99.90;;;;;;4995533;28;20038;-79
2024/01/07 07:11:06;;;;;;;16.98;11.75;;;2.20;99.90;;;;;;4995710;28;20046;-79
2024/01/07 07:13:32;;;;;;;18.45;12.88;;;2.20;99.90;;;;;;4977914;28;20078;-79
2024/01/07 07:15:58;;;;;;;17.92;13.20;;;2.20;99.90;;;;;;4995534;28;20027;-79
2024/01/07 07:18:24;;;;;;;20.80;13.32;;;2.20;99.90;;;;;;4978378;28;20031;-79
2024/01/07 07:20:50;;;;;;;17.50;12.65;;;2.40;99.90;;;;;;4994612;28;20141;-79
2024/01/07 07:23:15;;;;;;;17.75;12.45;;;2.30;99.90;;;;;;4961880;28;20026;-79
2024/01/07 07:25:41;;;;;;;18.08;12.73;;;2.20;99.90;;;;;;4977980;28;20050;-79
2024/01/07 07:28:07;;;;;;;18.65;13.07;;;2.30;99.90;;;;;;4977695;28;20035;-80
2024/01/07 07:30:32;;;;;;;18.23;12.60;;;2.30;99.90;;;;;;4961795;28;20038;-79
2024/01/07 07:32:58;;;;;;;18.70;12.73;;;2.20;99.90;;;;;;4995005;28;20114;-79
2024/01/07 07:35:24;;;;;;;18.67;12.13;;;2.20;99.90;;;;;;4978365;28;20052;-78
2024/01/07 07:37:49;;;;;;;17.45;12.45;;;2.20;99.90;;;;;;4978243;28;20035;-79
2024/01/07 07:40:15;;;;;;;15.63;11.32;;;2.20;99.90;;;;;;4977480;28;20396;-79
2024/01/07 07:42:41;;;;;;;18.42;12.07;;;2.10;99.90;;;;;;4977960;28;20038;-79
2024/01/07 07:45:07;;;;;;;19.80;12.32;;;2.20;99.90;;;;;;4977633;28;20483;-79
2024/01/07 07:47:32;;;;;;;15.98;11.57;;;2.20;99.90;;;;;;4994113;28;20350;-79
2024/01/07 07:49:58;;;;;;;20.60;12.48;;;2.00;99.90;;;;;;4993545;28;20117;-80
2024/01/07 07:52:25;;;;;;;16.42;11.32;;;1.90;99.90;;;;;;4994137;28;20038;-79
2024/01/07 07:54:54;;;;;;;14.70;9.65;;;2.00;99.90;;;;;;4993938;28;20086;-78
2024/01/07 07:57:21;;;;;;;14.85;11.10;;;2.10;99.90;;;;;;4993556;28;20114;-77
2024/01/07 07:59:50;;;;;;;12.60;9.77;;;2.20;99.90;;;;;;4993335;28;20396;-78
2024/01/07 08:02:16;;;;;;;11.98;8.60;;;2.20;99.90;;;;;;4993800;28;20113;-81
2024/01/07 08:04:42;;;;;;;15.05;10.80;;;2.50;99.90;;;;;;4994677;28;20070;-79
2024/01/07 08:07:09;;;;;;;13.18;9.85;;;2.70;99.90;;;;;;4994762;28;20530;-78
2024/01/07 08:09:37;;;;;;;14.98;10.98;;;2.70;99.90;;;;;;4995850;28;20109;-79
2024/01/07 08:12:07;;;;;;;12.63;9.55;;;2.70;99.90;;;;;;5005010;28;20077;-80
2024/01/07 08:14:33;;;;;;;13.18;9.25;;;2.70;99.90;;;;;;4992110;28;20492;-80
2024/01/07 08:16:59;;;;;;;12.00;8.98;;;2.70;99.90;;;;;;5011358;28;20039;-80
2024/01/07 08:19:25;;;;;;;10.48;8.48;;;2.60;99.90;;;;;;5007188;28;20038;-80
2024/01/07 08:21:51;;;;;;;13.93;8.77;;;2.70;99.90;;;;;;4991993;28;20121;-80
2024/01/07 08:24:16;;;;;;;11.02;8.50;;;2.80;99.90;;;;;;5007962;28;20082;-80
2024/01/07 08:26:42;;;;;;;8.52;7.13;;;2.70;99.90;;;;;;4992209;28;20034;-80
2024/01/07 08:29:08;;;;;;;9.40;7.25;;;2.80;99.90;;;;;;5008689;28;20341;-80
2024/01/07 08:31:33;;;;;;;10.32;7.15;;;2.80;99.90;;;;;;5003256;28;20030;-81
2024/01/07 08:33:59;;;;;;;11.00;7.68;;;2.80;99.90;;;;;;4994560;28;20089;-78
2024/01/07 08:36:25;;;;;;;11.50;7.63;;;2.70;99.90;;;;;;4993414;28;20034;-79
2024/01/07 08:38:51;;;;;;;8.88;7.22;;;2.50;99.90;;;;;;4993553;28;20381;-76
2024/01/07 08:41:16;;;;;;;9.57;7.60;;;2.60;99.90;;;;;;4992650;28;20412;-76
2024/01/07 08:43:42;;;;;;;10.52;7.15;;;2.70;99.90;;;;;;4992940;28;20034;-76
2024/01/07 08:46:08;;;;;;;8.50;6.90;;;2.60;99.90;;;;;;4992686;28;20489;-76
2024/01/07 08:48:34;;;;;;;9.68;7.32;;;2.70;99.90;;;;;;4992945;28;20030;-77
2024/01/07 08:51:00;;;;;;;10.95;8.05;;;2.90;99.90;;;;;;4994241;28;20484;-77
2024/01/07 08:53:25;;;;;;;10.25;7.00;;;3.00;99.90;;;;;;4976934;28;20457;-77
2024/01/07 08:55:51;;;;;;;13.23;8.80;;;2.80;99.90;;;;;;4992469;28;20046;-75
2024/01/07 08:58:17;;;;;;;11.18;8.13;;;2.50;99.90;;;;;;4976960;28;20052;-76
2024/01/07 09:00:43;;;;;;;10.40;8.02;;;2.30;99.90;;;;;;4992551;28;20039;-75
2024/01/07 09:03:10;;;;;;;12.27;8.68;;;2.40;99.90;;;;;;4994015;28;20041;-76
2024/01/07 09:05:36;;;;;;;13.35;8.43;;;2.50;99.90;;;;;;4992841;28;20034;-77
2024/01/07 09:08:02;;;;;;;9.32;7.45;;;2.60;99.90;;;;;;4992417;28;20042;-78
2024/01/07 09:10:28;;;;;;;10.52;7.40;;;2.80;99.90;;;;;;4992330;28;20442;-78
2024/01/07 09:12:54;;;;;;;11.80;8.57;;;2.70;99.90;;;;;;4976589;28;20035;-80
2024/01/07 09:15:20;;;;;;;13.48;7.85;;;2.80;99.90;;;;;;4992510;28;20567;-81
2024/01/07 09:17:47;;;;;;;12.32;6.97;;;2.80;99.90;;;;;;4999119;28;20031;-81
2024/01/07 09:20:13;;;;;;;10.93;7.68;;;2.70;99.90;;;;;;5000789;28;20070;-79
2024/01/07 09:22:39;;;;;;;11.23;7.75;;;2.50;99.90;;;;;;4999764;28;20065;-79
2024/01/07 09:25:06;;;;;;;11.10;7.45;;;2.40;99.90;;;;;;4998940;28;20034;-78
2024/01/07 09:27:33;;;;;;;13.18;7.65;;;2.30;99.90;;;;;;4982579;28;20476;-77
2024/01/07 09:29:59;;;;;;;10.13;7.43;;;2.20;99.90;;;;;;4998766;28;20030;-76
2024/01/07 09:32:25;;;;;;;12.43;7.78;;;2.30;99.90;;;;;;4999935;28;20033;-78
2024/01/07 09:34:51;;;;;;;12.27;7.57;;;2.30;99.90;;;;;;4982604;28;20027;-78
2024/01/07 09:37:18;;;;;;;14.35;8.65;;;2.20;99.90;;;;;;4999333;28;20041;-78
2024/01/07 09:39:45;;;;;;;11.80;7.57;;;2.30;99.90;;;;;;4998723;28;20038;-78
2024/01/07 09:42:14;;;;;;;16.27;8.00;;;2.40;99.90;;;;;;4999971;28;20022;-78
2024/01/07 09:44:44;;;;;;;11.30;7.97;;;2.20;99.90;;;;;;4998404;28;20473;-78
2024/01/07 09:47:14;;;;;;;9.57;6.97;;;2.20;99.90;;;;;;4998351;28;20038;-80
2024/01/07 09:49:41;;;;;;;12.40;6.68;;;2.20;99.90;;;;;;4998435;28;20036;-78
2024/01/07 09:52:12;;;;;;;14.23;7.38;;;2.40;99.90;;;;;;4998377;28;20034;-77
2024/01/07 09:54:38;;;;;;;12.15;7.25;;;2.40;99.90;;;;;;4998095;28;20113;-78
2024/01/07 09:57:08;;;;;;;11.98;7.38;;;2.20;99.90;;;;;;4998471;28;20034;-78
2024/01/07 09:59:36;;;;;;;11.68;6.65;;;2.20;99.90;;;;;;4999600;28;20045;-78
2024/01/07 10:02:02;;;;;;;12.13;7.07;;;2.10;99.90;;;;;;4998461;28;20144;-78
2024/01/07 10:04:30;;;;;;;10.63;6.72;;;2.00;99.90;;;;;;4999673;28;20041;-78
2024/01/07 10:06:55;;;;;;;9.43;6.15;;;2.10;99.90;;;;;;4999872;28;20030;-78
2024/01/07 10:09:28;;;;;;;10.73;6.20;;;2.00;99.90;;;;;;4997974;28;20492;-78
2024/01/07 10:11:54;;;;;;;10.52;5.70;;;2.10;99.90;;;;;;4998063;28;20121;-79
2024/01/07 10:14:24;;;;;;;8.77;5.32;;;2.20;99.90;;;;;;4998008;28;20496;-78
2024/01/07 10:16:50;;;;;;;8.60;5.32;;;2.40;99.90;;;;;;4983354;28;20034;-78
2024/01/07 10:19:25;;;;;;;7.55;4.88;;;2.50;99.90;;;;;;5000025;28;20389;-78
2024/01/07 10:22:04;;;;;;;8.32;4.75;;;2.50;99.90;;;;;;4998166;28;20033;-78
2024/01/07 10:24:41;;;;;;;7.93;4.68;;;2.40;99.90;;;;;;4998195;28;20026;-77
2024/01/07 10:27:07;;;;;;;8.02;4.50;;;2.40;99.90;;;;;;4997473;28;20030;-76
2024/01/07 10:29:34;;;;;;;9.25;4.60;;;2.20;99.90;;;;;;4995127;28;20081;-79
2024/01/07 10:32:05;;;;;;;6.43;4.60;;;2.10;99.90;;;;;;4997354;28;20026;-80
2024/01/07 10:34:32;;;;;;;6.93;4.38;;;2.20;99.90;;;;;;4995230;28;20117;-78
2024/01/07 10:36:59;;;;;;;7.60;4.57;;;2.30;99.90;;;;;;4997069;28;20084;-78
2024/01/07 10:39:25;;;;;;;6.32;3.92;;;2.30;99.90;;;;;;4996615;28;20030;-79
2024/01/07 10:41:56;;;;;;;7.05;3.92;;;2.30;99.90;;;;;;4996642;28;20030;-79
2024/01/07 10:44:23;;;;;;;5.93;3.60;;;2.30;99.90;;;;;;4996347;28;20027;-80
2024/01/07 10:46:49;;;;;;;7.00;3.88;;;2.40;99.90;;;;;;4995331;28;20121;-80
2024/01/07 10:49:22;;;;;;;6.00;3.80;;;2.40;99.90;;;;;;4995021;28;20085;-80
2024/01/07 10:52:07;;;;;;;7.50;3.85;;;2.60;99.90;;;;;;4994500;28;20030;-79
2024/01/07 10:54:35;;;;;;;5.25;3.30;;;2.60;99.90;;;;;;4995534;28;20026;-80
2024/01/07 10:57:14;;;;;;;5.20;3.85;;;2.50;99.90;;;;;;4995468;28;20026;-80
2024/01/07 10:59:41;;;;;;;7.25;3.50;;;2.60;99.90;;;;;;4996807;28;20113;-80
2024/01/07 11:02:09;;;;;;;6.35;3.15;;;2.70;99.90;;;;;;4996625;28;20038;-81
2024/01/07 11:04:45;;;;;;;4.80;3.10;;;2.70;99.90;;;;;;4994841;28;20030;-80
2024/01/07 11:07:53;;;;;;;4.60;3.13;;;2.80;99.90;;;;;;4996329;28;20033;-79
2024/01/07 11:10:31;;;;;;;5.15;3.17;;;2.90;99.90;;;;;;4995877;28;20061;-79
2024/01/07 11:12:58;;;;;;;5.80;3.30;;;2.80;99.90;;;;;;4996314;28;20026;-77
2024/01/07 11:15:49;;;;;;;5.32;3.53;;;2.80;99.90;;;;;;4978315;28;20492;-78
2024/01/07 11:18:22;;;;;;;6.15;3.60;;;2.80;99.90;;;;;;4994527;28;20039;-78
2024/01/07 11:20:48;;;;;;;8.02;3.80;;;2.90;99.90;;;;;;4995523;28;20032;-78
2024/01/07 11:23:27;;;;;;;4.78;3.10;;;3.00;99.90;;;;;;4977893;28;20519;-77
2024/01/07 11:25:55;;;;;;;4.82;3.38;;;3.10;99.90;;;;;;4994278;28;20117;-77
2024/01/07 11:28:47;;;;;;;5.88;2.92;;;3.10;99.90;;;;;;4994148;28;20093;-77
2024/01/07 11:31:17;;;;;;;3.90;2.80;;;3.00;99.90;;;;;;4994750;28;20073;-77
2024/01/07 11:33:45;;;;;;;6.45;2.78;;;3.10;99.90;;;;;;4978527;28;20093;-78
2024/01/07 11:36:13;;;;;;;4.75;2.88;;;3.20;99.90;;;;;;4993752;28;20113;-77
2024/01/07 11:38:42;;;;;;;4.35;2.38;;;3.30;99.90;;;;;;4977807;28;20022;-76
2024/01/07 11:41:10;;;;;;;9.25;2.55;;;3.40;99.90;;;;;;4995270;28;20026;-79
2024/01/07 11:43:36;;;;;;;4.25;2.10;;;3.50;99.90;;;;;;4994471;28;20034;-80
2024/01/07 11:46:02;;;;;;;4.13;1.90;;;3.60;99.90;;;;;;4996399;28;20479;-80
2024/01/07 11:48:28;;;;;;;5.20;2.15;;;3.50;98.90;;;;;;4977901;28;20188;-76
2024/01/07 11:50:54;;;;;;;6.07;2.22;;;3.30;99.00;;;;;;4993479;28;20073;-77
2024/01/07 11:53:20;;;;;;;5.70;2.25;;;3.30;98.40;;;;;;4993748;28;20027;-77
2024/01/07 11:55:46;;;;;;;4.22;1.92;;;3.20;98.70;;;;;;4993478;28;20030;-77
2024/01/07 11:58:13;;;;;;;4.18;1.80;;;3.30;99.10;;;;;;4993165;28;20022;-78
2024/01/07 12:00:39;;;;;;;4.32;2.25;;;3.10;97.90;;;;;;4978044;28;20184;-78
2024/01/07 12:03:05;;;;;;;3.38;1.65;;;2.90;98.90;;;;;;4995195;28;20062;-79
2024/01/07 12:05:31;;;;;;;3.85;1.50;;;3.10;99.30;;;;;;4993692;28;20381;-77
2024/01/07 12:07:57;;;;;;;3.70;1.20;;;3.30;99.00;;;;;;4994853;28;20030;-79
2024/01/07 12:10:25;;;;;;;4.20;1.50;;;3.50;98.00;;;;;;4993412;28;20398;-78
2024/01/07 12:12:52;;;;;;;2.53;1.30;;;3.70;97.60;;;;;;4993356;28;20027;-78
2024/01/07 12:15:19;;;;;;;4.72;1.30;;;3.60;97.10;;;;;;4992890;28;20054;-80
2024/01/07 12:17:58;;;;;;;2.78;1.08;;;3.60;97.30;;;;;;4994547;28;20041;-78
2024/01/07 12:20:25;;;;;;;3.80;1.35;;;3.70;96.40;;;;;;4994346;28;20031;-79
2024/01/07 12:22:51;;;;;;;2.72;1.65;;;3.70;96.50;;;;;;4994666;28;20112;-78
2024/01/07 12:25:25;;;;;;;2.60;1.00;;;3.80;96.10;;;;;;4995479;28;20504;-80
2024/01/07 12:27:52;;;;;;;2.35;1.25;;;4.00;95.90;;;;;;4995492;28;20105;-79
2024/01/07 12:30:24;;;;;;;2.67;1.30;;;4.00;95.30;;;;;;4994645;28;20484;-80
2024/01/07 12:32:51;;;;;;;2.05;0.88;;;3.80;95.10;;;;;;4994552;28;20034;-80
2024/01/07 12:35:17;;;;;;;1.15;0.60;;;3.70;95.00;;;;;;4994347;28;20037;-80
2024/01/07 12:37:44;;;;;;;2.63;0.77;;;3.50;94.60;;;;;;4994198;28;20098;-80
2024/01/07 12:40:11;;;;;;;1.20;0.63;;;3.40;94.60;;;;;;4994001;28;20086;-80